sensor_id;sensor_type;location;lat;lon;timestamp;P1;P2;P0
73565;PMS5003;61846;52.970;-3.168;2022-09-09T00:01:43;11;9;
73565;PMS5003;61846;52.970;-3.168;2022-09-09T00:04:14;13;12;
73565;PMS5003;61846;52.970;-3.168;2022-09-09T00:06:32;12;11;
73565;PMS5003;61846;52.970;-3.168;2022-09-09T00:09:00;16;12;
73565;PMS5003;61846;52.970;-3.168;2022-09-09T00:11:24;11;11;
73565;PMS5003;61846;52.970;-3.168;2022-09-09T00:13:48;13;13;
73565;PMS5003;61846;52.970;-3.168;2022-09-09T00:16:15;19;13;
73565;PMS5003;61846;52.970;-3.168;2022-09-09T00:18:44;12;12;
73565;PMS5003;61846;52.970;-3.168;2022-09-09T00:21:05;13;12;
73565;PMS5003;61846;52.970;-3.168;2022-09-09T00:23:30;15;13;
73565;PMS5003;61846;52.970;-3.168;2022-09-09T00:25:58;12;11;
73565;PMS5003;61846;52.970;-3.168;2022-09-09T00:28:22;13;12;
73565;PMS5003;61846;52.970;-3.168;2022-09-09T00:30:46;13;11;
73565;PMS5003;61846;52.970;-3.168;2022-09-09T00:33:11;11;11;
73565;PMS5003;61846;52.970;-3.168;2022-09-09T00:35:37;13;12;
73565;PMS5003;61846;52.970;-3.168;2022-09-09T00:38:03;15;14;
73565;PMS5003;61846;52.970;-3.168;2022-09-09T00:40:29;14;14;
73565;PMS5003;61846;52.970;-3.168;2022-09-09T00:42:54;15;15;
73565;PMS5003;61846;52.970;-3.168;2022-09-09T00:45:25;12;11;
73565;PMS5003;61846;52.970;-3.168;2022-09-09T00:47:44;11;11;
73565;PMS5003;61846;52.970;-3.168;2022-09-09T00:50:12;13;11;
73565;PMS5003;61846;52.970;-3.168;2022-09-09T00:52:36;13;11;
73565;PMS5003;61846;52.970;-3.168;2022-09-09T00:55:03;18;12;
73565;PMS5003;61846;52.970;-3.168;2022-09-09T00:57:26;8;8;
73565;PMS5003;61846;52.970;-3.168;2022-09-09T00:59:51;8;8;
73565;PMS5003;61846;52.970;-3.168;2022-09-09T01:02:20;14;9;
73565;PMS5003;61846;52.970;-3.168;2022-09-09T01:04:40;8;8;
73565;PMS5003;61846;52.970;-3.168;2022-09-09T01:07:07;12;12;
73565;PMS5003;61846;52.970;-3.168;2022-09-09T01:09:32;8;8;
73565;PMS5003;61846;52.970;-3.168;2022-09-09T01:11:58;12;11;
73565;PMS5003;61846;52.970;-3.168;2022-09-09T01:14:29;9;9;
73565;PMS5003;61846;52.970;-3.168;2022-09-09T01:16:47;12;12;
73565;PMS5003;61846;52.970;-3.168;2022-09-09T01:19:15;11;10;
73565;PMS5003;61846;52.970;-3.168;2022-09-09T01:21:39;10;8;
73565;PMS5003;61846;52.970;-3.168;2022-09-09T01:24:07;9;8;
73565;PMS5003;61846;52.970;-3.168;2022-09-09T01:26:29;14;9;
73565;PMS5003;61846;52.970;-3.168;2022-09-09T01:28:54;10;9;
73565;PMS5003;61846;52.970;-3.168;2022-09-09T01:31:20;11;11;
73565;PMS5003;61846;52.970;-3.168;2022-09-09T01:33:45;8;8;
73565;PMS5003;61846;52.970;-3.168;2022-09-09T01:36:11;11;9;
73565;PMS5003;61846;52.970;-3.168;2022-09-09T01:38:36;11;10;
73565;PMS5003;61846;52.970;-3.168;2022-09-09T01:41:01;10;10;
73565;PMS5003;61846;52.970;-3.168;2022-09-09T01:43:27;7;7;
73565;PMS5003;61846;52.970;-3.168;2022-09-09T01:45:53;8;8;
73565;PMS5003;61846;52.970;-3.168;2022-09-09T01:48:17;10;7;
73565;PMS5003;61846;52.970;-3.168;2022-09-09T01:50:43;9;9;
73565;PMS5003;61846;52.970;-3.168;2022-09-09T01:53:08;8;8;
73565;PMS5003;61846;52.970;-3.168;2022-09-09T01:55:35;8;7;
73565;PMS5003;61846;52.970;-3.168;2022-09-09T01:58:02;8;8;
73565;PMS5003;61846;52.970;-3.168;2022-09-09T02:00:24;8;7;
73565;PMS5003;61846;52.970;-3.168;2022-09-09T02:02:53;12;11;
73565;PMS5003;61846;52.970;-3.168;2022-09-09T02:05:18;8;8;
73565;PMS5003;61846;52.970;-3.168;2022-09-09T02:07:41;9;9;
73565;PMS5003;61846;52.970;-3.168;2022-09-09T02:10:08;11;9;
73565;PMS5003;61846;52.970;-3.168;2022-09-09T02:12:31;10;10;
73565;PMS5003;61846;52.970;-3.168;2022-09-09T02:15:00;6;6;
73565;PMS5003;61846;52.970;-3.168;2022-09-09T02:17:22;11;11;
73565;PMS5003;61846;52.970;-3.168;2022-09-09T02:19:48;10;9;
73565;PMS5003;61846;52.970;-3.168;2022-09-09T02:22:13;10;10;
73565;PMS5003;61846;52.970;-3.168;2022-09-09T02:24:38;13;9;
73565;PMS5003;61846;52.970;-3.168;2022-09-09T02:27:04;12;10;
73565;PMS5003;61846;52.970;-3.168;2022-09-09T02:29:30;9;9;
73565;PMS5003;61846;52.970;-3.168;2022-09-09T02:31:55;11;11;
73565;PMS5003;61846;52.970;-3.168;2022-09-09T02:34:20;10;10;
73565;PMS5003;61846;52.970;-3.168;2022-09-09T02:36:45;7;7;
73565;PMS5003;61846;52.970;-3.168;2022-09-09T02:39:11;10;9;
73565;PMS5003;61846;52.970;-3.168;2022-09-09T02:41:36;9;6;
73565;PMS5003;61846;52.970;-3.168;2022-09-09T02:44:01;10;8;
73565;PMS5003;61846;52.970;-3.168;2022-09-09T02:46:32;11;11;
73565;PMS5003;61846;52.970;-3.168;2022-09-09T02:48:55;10;9;
73565;PMS5003;61846;52.970;-3.168;2022-09-09T02:51:18;9;9;
73565;PMS5003;61846;52.970;-3.168;2022-09-09T02:53:43;11;11;
73565;PMS5003;61846;52.970;-3.168;2022-09-09T02:56:09;12;8;
73565;PMS5003;61846;52.970;-3.168;2022-09-09T02:58:33;10;10;
73565;PMS5003;61846;52.970;-3.168;2022-09-09T03:00:58;9;8;
73565;PMS5003;61846;52.970;-3.168;2022-09-09T03:03:24;12;12;
73565;PMS5003;61846;52.970;-3.168;2022-09-09T03:05:49;10;10;
73565;PMS5003;61846;52.970;-3.168;2022-09-09T03:08:14;6;6;
73565;PMS5003;61846;52.970;-3.168;2022-09-09T03:10:40;8;8;
73565;PMS5003;61846;52.970;-3.168;2022-09-09T03:13:05;12;12;
73565;PMS5003;61846;52.970;-3.168;2022-09-09T03:15:31;10;10;
73565;PMS5003;61846;52.970;-3.168;2022-09-09T03:17:56;6;6;
73565;PMS5003;61846;52.970;-3.168;2022-09-09T03:20:21;13;11;
73565;PMS5003;61846;52.970;-3.168;2022-09-09T03:22:47;19;8;
73565;PMS5003;61846;52.970;-3.168;2022-09-09T03:25:13;6;6;
73565;PMS5003;61846;52.970;-3.168;2022-09-09T03:27:38;10;10;
73565;PMS5003;61846;52.970;-3.168;2022-09-09T03:30:04;9;8;
73565;PMS5003;61846;52.970;-3.168;2022-09-09T03:32:29;12;12;
73565;PMS5003;61846;52.970;-3.168;2022-09-09T03:34:54;11;10;
73565;PMS5003;61846;52.970;-3.168;2022-09-09T03:37:19;7;7;
73565;PMS5003;61846;52.970;-3.168;2022-09-09T03:39:45;9;8;
73565;PMS5003;61846;52.970;-3.168;2022-09-09T03:42:12;9;7;
73565;PMS5003;61846;52.970;-3.168;2022-09-09T03:44:36;7;7;
73565;PMS5003;61846;52.970;-3.168;2022-09-09T03:47:01;7;5;
73565;PMS5003;61846;52.970;-3.168;2022-09-09T03:49:27;7;6;
73565;PMS5003;61846;52.970;-3.168;2022-09-09T03:51:52;7;6;
73565;PMS5003;61846;52.970;-3.168;2022-09-09T03:54:17;8;7;
73565;PMS5003;61846;52.970;-3.168;2022-09-09T03:56:43;7;6;
73565;PMS5003;61846;52.970;-3.168;2022-09-09T03:59:09;4;4;
73565;PMS5003;61846;52.970;-3.168;2022-09-09T04:01:34;6;5;
73565;PMS5003;61846;52.970;-3.168;2022-09-09T04:03:59;5;5;
73565;PMS5003;61846;52.970;-3.168;2022-09-09T04:06:25;5;4;
73565;PMS5003;61846;52.970;-3.168;2022-09-09T04:08:50;5;5;
73565;PMS5003;61846;52.970;-3.168;2022-09-09T04:11:16;7;5;
73565;PMS5003;61846;52.970;-3.168;2022-09-09T04:13:41;4;4;
73565;PMS5003;61846;52.970;-3.168;2022-09-09T04:16:06;5;5;
73565;PMS5003;61846;52.970;-3.168;2022-09-09T04:18:32;9;5;
73565;PMS5003;61846;52.970;-3.168;2022-09-09T04:20:57;6;6;
73565;PMS5003;61846;52.970;-3.168;2022-09-09T04:23:23;7;7;
73565;PMS5003;61846;52.970;-3.168;2022-09-09T04:25:48;5;5;
73565;PMS5003;61846;52.970;-3.168;2022-09-09T04:28:13;5;4;
73565;PMS5003;61846;52.970;-3.168;2022-09-09T04:30:38;7;5;
73565;PMS5003;61846;52.970;-3.168;2022-09-09T04:33:04;5;5;
73565;PMS5003;61846;52.970;-3.168;2022-09-09T04:35:29;5;5;
73565;PMS5003;61846;52.970;-3.168;2022-09-09T04:37:54;7;5;
73565;PMS5003;61846;52.970;-3.168;2022-09-09T04:40:20;5;3;
73565;PMS5003;61846;52.970;-3.168;2022-09-09T04:42:45;4;4;
73565;PMS5003;61846;52.970;-3.168;2022-09-09T04:45:11;4;4;
73565;PMS5003;61846;52.970;-3.168;2022-09-09T04:47:36;6;5;
73565;PMS5003;61846;52.970;-3.168;2022-09-09T04:50:02;4;4;
73565;PMS5003;61846;52.970;-3.168;2022-09-09T04:52:27;7;6;
73565;PMS5003;61846;52.970;-3.168;2022-09-09T04:54:52;5;5;
73565;PMS5003;61846;52.970;-3.168;2022-09-09T04:57:18;4;4;
73565;PMS5003;61846;52.970;-3.168;2022-09-09T04:59:43;2;2;
73565;PMS5003;61846;52.970;-3.168;2022-09-09T05:02:09;4;3;
73565;PMS5003;61846;52.970;-3.168;2022-09-09T05:04:34;6;4;
73565;PMS5003;61846;52.970;-3.168;2022-09-09T05:06:59;4;4;
73565;PMS5003;61846;52.970;-3.168;2022-09-09T05:09:25;2;2;
73565;PMS5003;61846;52.970;-3.168;2022-09-09T05:11:50;3;3;
73565;PMS5003;61846;52.970;-3.168;2022-09-09T05:14:16;3;3;
73565;PMS5003;61846;52.970;-3.168;2022-09-09T05:16:41;2;2;
73565;PMS5003;61846;52.970;-3.168;2022-09-09T05:19:06;4;2;
73565;PMS5003;61846;52.970;-3.168;2022-09-09T05:21:32;6;4;
73565;PMS5003;61846;52.970;-3.168;2022-09-09T05:23:57;6;4;
73565;PMS5003;61846;52.970;-3.168;2022-09-09T05:26:23;4;4;
73565;PMS5003;61846;52.970;-3.168;2022-09-09T05:28:48;3;3;
73565;PMS5003;61846;52.970;-3.168;2022-09-09T05:31:14;1;1;
73565;PMS5003;61846;52.970;-3.168;2022-09-09T05:33:39;4;4;
73565;PMS5003;61846;52.970;-3.168;2022-09-09T05:36:05;2;2;
73565;PMS5003;61846;52.970;-3.168;2022-09-09T05:38:30;2;2;
73565;PMS5003;61846;52.970;-3.168;2022-09-09T05:40:55;3;3;
73565;PMS5003;61846;52.970;-3.168;2022-09-09T05:43:20;3;3;
73565;PMS5003;61846;52.970;-3.168;2022-09-09T05:45:46;2;2;
73565;PMS5003;61846;52.970;-3.168;2022-09-09T05:48:11;3;2;
73565;PMS5003;61846;52.970;-3.168;2022-09-09T05:50:37;2;2;
73565;PMS5003;61846;52.970;-3.168;2022-09-09T05:53:02;4;3;
73565;PMS5003;61846;52.970;-3.168;2022-09-09T05:55:27;3;3;
73565;PMS5003;61846;52.970;-3.168;2022-09-09T05:57:53;2;2;
73565;PMS5003;61846;52.970;-3.168;2022-09-09T06:00:18;3;3;
73565;PMS5003;61846;52.970;-3.168;2022-09-09T06:02:44;1;1;
73565;PMS5003;61846;52.970;-3.168;2022-09-09T06:05:09;4;2;
73565;PMS5003;61846;52.970;-3.168;2022-09-09T06:07:35;2;2;
73565;PMS5003;61846;52.970;-3.168;2022-09-09T06:10:00;3;2;
73565;PMS5003;61846;52.970;-3.168;2022-09-09T06:12:25;3;3;
73565;PMS5003;61846;52.970;-3.168;2022-09-09T06:14:51;1;1;
73565;PMS5003;61846;52.970;-3.168;2022-09-09T06:17:16;2;2;
73565;PMS5003;61846;52.970;-3.168;2022-09-09T06:19:42;2;2;
73565;PMS5003;61846;52.970;-3.168;2022-09-09T06:22:07;3;3;
73565;PMS5003;61846;52.970;-3.168;2022-09-09T06:24:32;2;2;
73565;PMS5003;61846;52.970;-3.168;2022-09-09T06:26:58;3;3;
73565;PMS5003;61846;52.970;-3.168;2022-09-09T06:29:23;2;2;
73565;PMS5003;61846;52.970;-3.168;2022-09-09T06:31:49;4;2;
73565;PMS5003;61846;52.970;-3.168;2022-09-09T06:34:14;2;2;
73565;PMS5003;61846;52.970;-3.168;2022-09-09T06:36:39;1;1;
73565;PMS5003;61846;52.970;-3.168;2022-09-09T06:39:05;2;2;
73565;PMS5003;61846;52.970;-3.168;2022-09-09T06:41:31;2;2;
73565;PMS5003;61846;52.970;-3.168;2022-09-09T06:43:56;8;3;
73565;PMS5003;61846;52.970;-3.168;2022-09-09T06:46:21;6;3;
73565;PMS5003;61846;52.970;-3.168;2022-09-09T06:48:47;1;1;
73565;PMS5003;61846;52.970;-3.168;2022-09-09T06:51:12;3;2;
73565;PMS5003;61846;52.970;-3.168;2022-09-09T06:53:37;4;2;
73565;PMS5003;61846;52.970;-3.168;2022-09-09T06:56:13;5;4;
73565;PMS5003;61846;52.970;-3.168;2022-09-09T06:58:28;2;2;
73565;PMS5003;61846;52.970;-3.168;2022-09-09T07:00:53;0;0;
73565;PMS5003;61846;52.970;-3.168;2022-09-09T07:03:18;1;1;
73565;PMS5003;61846;52.970;-3.168;2022-09-09T07:08:10;2;1;
73565;PMS5003;61846;52.970;-3.168;2022-09-09T07:10:34;1;1;
73565;PMS5003;61846;52.970;-3.168;2022-09-09T07:13:00;2;2;
73565;PMS5003;61846;52.970;-3.168;2022-09-09T07:15:25;2;2;
73565;PMS5003;61846;52.970;-3.168;2022-09-09T07:17:51;2;2;
73565;PMS5003;61846;52.970;-3.168;2022-09-09T07:20:16;2;2;
73565;PMS5003;61846;52.970;-3.168;2022-09-09T07:22:42;3;3;
73565;PMS5003;61846;52.970;-3.168;2022-09-09T07:25:07;3;3;
73565;PMS5003;61846;52.970;-3.168;2022-09-09T07:27:32;2;2;
73565;PMS5003;61846;52.970;-3.168;2022-09-09T07:29:58;1;1;
73565;PMS5003;61846;52.970;-3.168;2022-09-09T07:32:23;1;1;
73565;PMS5003;61846;52.970;-3.168;2022-09-09T07:34:48;3;2;
73565;PMS5003;61846;52.970;-3.168;2022-09-09T07:37:14;0;0;
73565;PMS5003;61846;52.970;-3.168;2022-09-09T07:39:39;0;0;
73565;PMS5003;61846;52.970;-3.168;2022-09-09T07:42:05;0;0;
73565;PMS5003;61846;52.970;-3.168;2022-09-09T07:44:29;2;2;
73565;PMS5003;61846;52.970;-3.168;2022-09-09T07:46:55;2;2;
73565;PMS5003;61846;52.970;-3.168;2022-09-09T07:49:20;1;1;
73565;PMS5003;61846;52.970;-3.168;2022-09-09T07:51:46;1;1;
73565;PMS5003;61846;52.970;-3.168;2022-09-09T07:54:12;2;1;
73565;PMS5003;61846;52.970;-3.168;2022-09-09T07:56:37;2;2;
73565;PMS5003;61846;52.970;-3.168;2022-09-09T07:59:02;2;1;
73565;PMS5003;61846;52.970;-3.168;2022-09-09T08:01:28;4;1;
73565;PMS5003;61846;52.970;-3.168;2022-09-09T08:03:53;1;1;
73565;PMS5003;61846;52.970;-3.168;2022-09-09T08:06:18;1;1;
73565;PMS5003;61846;52.970;-3.168;2022-09-09T08:08:43;1;0;
73565;PMS5003;61846;52.970;-3.168;2022-09-09T08:11:10;2;2;
73565;PMS5003;61846;52.970;-3.168;2022-09-09T08:13:34;2;2;
73565;PMS5003;61846;52.970;-3.168;2022-09-09T08:16:03;4;4;
73565;PMS5003;61846;52.970;-3.168;2022-09-09T08:18:26;0;0;
73565;PMS5003;61846;52.970;-3.168;2022-09-09T08:20:50;2;0;
73565;PMS5003;61846;52.970;-3.168;2022-09-09T08:23:15;1;1;
73565;PMS5003;61846;52.970;-3.168;2022-09-09T08:25:41;0;0;
73565;PMS5003;61846;52.970;-3.168;2022-09-09T08:28:06;2;1;
73565;PMS5003;61846;52.970;-3.168;2022-09-09T08:30:32;1;1;
73565;PMS5003;61846;52.970;-3.168;2022-09-09T08:32:57;0;0;
73565;PMS5003;61846;52.970;-3.168;2022-09-09T08:35:22;0;0;
73565;PMS5003;61846;52.970;-3.168;2022-09-09T08:37:48;2;2;
73565;PMS5003;61846;52.970;-3.168;2022-09-09T08:40:17;3;2;
73565;PMS5003;61846;52.970;-3.168;2022-09-09T08:42:39;1;1;
73565;PMS5003;61846;52.970;-3.168;2022-09-09T08:45:11;3;1;
73565;PMS5003;61846;52.970;-3.168;2022-09-09T08:47:31;2;2;
73565;PMS5003;61846;52.970;-3.168;2022-09-09T08:49:59;2;0;
73565;PMS5003;61846;52.970;-3.168;2022-09-09T08:52:21;1;1;
73565;PMS5003;61846;52.970;-3.168;2022-09-09T08:54:45;3;2;
73565;PMS5003;61846;52.970;-3.168;2022-09-09T08:57:11;4;3;
73565;PMS5003;61846;52.970;-3.168;2022-09-09T08:59:36;1;1;
73565;PMS5003;61846;52.970;-3.168;2022-09-09T09:02:03;2;1;
73565;PMS5003;61846;52.970;-3.168;2022-09-09T09:04:30;4;3;
73565;PMS5003;61846;52.970;-3.168;2022-09-09T09:06:54;2;0;
73565;PMS5003;61846;52.970;-3.168;2022-09-09T09:09:21;3;3;
73565;PMS5003;61846;52.970;-3.168;2022-09-09T09:11:44;3;3;
73565;PMS5003;61846;52.970;-3.168;2022-09-09T09:14:09;4;3;
73565;PMS5003;61846;52.970;-3.168;2022-09-09T09:16:34;1;1;
73565;PMS5003;61846;52.970;-3.168;2022-09-09T09:18:59;3;3;
73565;PMS5003;61846;52.970;-3.168;2022-09-09T09:21:26;4;3;
73565;PMS5003;61846;52.970;-3.168;2022-09-09T09:23:51;3;2;
73565;PMS5003;61846;52.970;-3.168;2022-09-09T09:26:15;2;2;
73565;PMS5003;61846;52.970;-3.168;2022-09-09T09:28:40;3;3;
73565;PMS5003;61846;52.970;-3.168;2022-09-09T09:31:07;4;4;
73565;PMS5003;61846;52.970;-3.168;2022-09-09T09:33:32;4;3;
73565;PMS5003;61846;52.970;-3.168;2022-09-09T09:35:57;0;0;
73565;PMS5003;61846;52.970;-3.168;2022-09-09T09:38:23;5;2;
73565;PMS5003;61846;52.970;-3.168;2022-09-09T09:40:49;5;5;
73565;PMS5003;61846;52.970;-3.168;2022-09-09T09:43:16;7;5;
73565;PMS5003;61846;52.970;-3.168;2022-09-09T09:45:41;7;4;
73565;PMS5003;61846;52.970;-3.168;2022-09-09T09:48:04;7;4;
73565;PMS5003;61846;52.970;-3.168;2022-09-09T09:50:29;4;4;
73565;PMS5003;61846;52.970;-3.168;2022-09-09T09:52:54;8;5;
73565;PMS5003;61846;52.970;-3.168;2022-09-09T09:55:19;4;4;
73565;PMS5003;61846;52.970;-3.168;2022-09-09T09:57:45;7;6;
73565;PMS5003;61846;52.970;-3.168;2022-09-09T10:00:12;6;6;
73565;PMS5003;61846;52.970;-3.168;2022-09-09T10:02:37;7;7;
73565;PMS5003;61846;52.970;-3.168;2022-09-09T10:05:02;9;7;
73565;PMS5003;61846;52.970;-3.168;2022-09-09T10:07:25;8;6;
73565;PMS5003;61846;52.970;-3.168;2022-09-09T10:09:54;13;10;
73565;PMS5003;61846;52.970;-3.168;2022-09-09T10:12:19;11;11;
73565;PMS5003;61846;52.970;-3.168;2022-09-09T10:14:44;10;8;
73565;PMS5003;61846;52.970;-3.168;2022-09-09T10:17:11;10;7;
73565;PMS5003;61846;52.970;-3.168;2022-09-09T10:19:33;9;9;
73565;PMS5003;61846;52.970;-3.168;2022-09-09T10:22:02;8;7;
73565;PMS5003;61846;52.970;-3.168;2022-09-09T10:24:28;8;8;
73565;PMS5003;61846;52.970;-3.168;2022-09-09T10:26:50;9;9;
73565;PMS5003;61846;52.970;-3.168;2022-09-09T10:31:41;7;5;
73565;PMS5003;61846;52.970;-3.168;2022-09-09T10:34:06;11;8;
73565;PMS5003;61846;52.970;-3.168;2022-09-09T10:36:30;11;10;
73565;PMS5003;61846;52.970;-3.168;2022-09-09T10:38:57;12;10;
73565;PMS5003;61846;52.970;-3.168;2022-09-09T10:41:25;10;10;
73565;PMS5003;61846;52.970;-3.168;2022-09-09T10:43:53;8;8;
73565;PMS5003;61846;52.970;-3.168;2022-09-09T10:46:13;16;7;
73565;PMS5003;61846;52.970;-3.168;2022-09-09T10:48:41;10;10;
73565;PMS5003;61846;52.970;-3.168;2022-09-09T10:51:09;7;7;
73565;PMS5003;61846;52.970;-3.168;2022-09-09T10:53:32;10;9;
73565;PMS5003;61846;52.970;-3.168;2022-09-09T10:55:55;8;8;
73565;PMS5003;61846;52.970;-3.168;2022-09-09T10:58:19;8;8;
73565;PMS5003;61846;52.970;-3.168;2022-09-09T11:00:44;7;7;
73565;PMS5003;61846;52.970;-3.168;2022-09-09T11:03:12;9;7;
73565;PMS5003;61846;52.970;-3.168;2022-09-09T11:05:36;7;7;
73565;PMS5003;61846;52.970;-3.168;2022-09-09T11:08:01;8;7;
73565;PMS5003;61846;52.970;-3.168;2022-09-09T11:10:26;8;7;
73565;PMS5003;61846;52.970;-3.168;2022-09-09T11:12:51;7;7;
73565;PMS5003;61846;52.970;-3.168;2022-09-09T11:15:17;7;7;
73565;PMS5003;61846;52.970;-3.168;2022-09-09T11:17:42;10;9;
73565;PMS5003;61846;52.970;-3.168;2022-09-09T11:20:10;8;6;
73565;PMS5003;61846;52.970;-3.168;2022-09-09T11:22:33;7;7;
73565;PMS5003;61846;52.970;-3.168;2022-09-09T11:24:59;7;3;
73565;PMS5003;61846;52.970;-3.168;2022-09-09T11:27:24;5;5;
73565;PMS5003;61846;52.970;-3.168;2022-09-09T11:30:13;5;5;
73565;PMS5003;61846;52.970;-3.168;2022-09-09T11:32:20;8;6;
73565;PMS5003;61846;52.970;-3.168;2022-09-09T11:34:43;8;7;
73565;PMS5003;61846;52.970;-3.168;2022-09-09T11:37:10;9;8;
73565;PMS5003;61846;52.970;-3.168;2022-09-09T11:39:36;4;4;
73565;PMS5003;61846;52.970;-3.168;2022-09-09T11:44:23;7;7;
73565;PMS5003;61846;52.970;-3.168;2022-09-09T11:46:48;5;5;
73565;PMS5003;61846;52.970;-3.168;2022-09-09T11:51:37;6;6;
73565;PMS5003;61846;52.970;-3.168;2022-09-09T11:54:03;4;4;
73565;PMS5003;61846;52.970;-3.168;2022-09-09T11:56:28;5;5;
73565;PMS5003;61846;52.970;-3.168;2022-09-09T11:58:55;4;4;
73565;PMS5003;61846;52.970;-3.168;2022-09-09T12:03:44;5;5;
73565;PMS5003;61846;52.970;-3.168;2022-09-09T12:06:09;5;5;
73565;PMS5003;61846;52.970;-3.168;2022-09-09T12:08:33;9;7;
73565;PMS5003;61846;52.970;-3.168;2022-09-09T12:10:59;4;4;
73565;PMS5003;61846;52.970;-3.168;2022-09-09T12:13:25;6;6;
73565;PMS5003;61846;52.970;-3.168;2022-09-09T12:15:50;8;6;
73565;PMS5003;61846;52.970;-3.168;2022-09-09T12:18:15;4;4;
73565;PMS5003;61846;52.970;-3.168;2022-09-09T12:20:40;3;3;
73565;PMS5003;61846;52.970;-3.168;2022-09-09T12:23:15;6;6;
73565;PMS5003;61846;52.970;-3.168;2022-09-09T12:25:33;5;5;
73565;PMS5003;61846;52.970;-3.168;2022-09-09T12:28:02;2;2;
73565;PMS5003;61846;52.970;-3.168;2022-09-09T12:30:21;10;7;
73565;PMS5003;61846;52.970;-3.168;2022-09-09T12:32:47;4;4;
73565;PMS5003;61846;52.970;-3.168;2022-09-09T12:35:13;5;5;
73565;PMS5003;61846;52.970;-3.168;2022-09-09T12:37:38;8;6;
73565;PMS5003;61846;52.970;-3.168;2022-09-09T12:40:03;6;6;
73565;PMS5003;61846;52.970;-3.168;2022-09-09T12:42:28;5;4;
73565;PMS5003;61846;52.970;-3.168;2022-09-09T12:44:54;5;5;
73565;PMS5003;61846;52.970;-3.168;2022-09-09T12:47:20;13;6;
73565;PMS5003;61846;52.970;-3.168;2022-09-09T12:49:45;4;4;
73565;PMS5003;61846;52.970;-3.168;2022-09-09T12:52:13;5;5;
73565;PMS5003;61846;52.970;-3.168;2022-09-09T12:54:35;5;5;
73565;PMS5003;61846;52.970;-3.168;2022-09-09T12:57:01;5;5;
73565;PMS5003;61846;52.970;-3.168;2022-09-09T12:59:26;5;5;
73565;PMS5003;61846;52.970;-3.168;2022-09-09T13:01:56;5;5;
73565;PMS5003;61846;52.970;-3.168;2022-09-09T13:04:19;6;5;
73565;PMS5003;61846;52.970;-3.168;2022-09-09T13:06:42;5;4;
73565;PMS5003;61846;52.970;-3.168;2022-09-09T13:09:08;5;3;
73565;PMS5003;61846;52.970;-3.168;2022-09-09T13:11:34;7;5;
73565;PMS5003;61846;52.970;-3.168;2022-09-09T13:13:57;2;2;
73565;PMS5003;61846;52.970;-3.168;2022-09-09T13:16:24;2;2;
73565;PMS5003;61846;52.970;-3.168;2022-09-09T13:18:48;5;3;
73565;PMS5003;61846;52.970;-3.168;2022-09-09T13:21:13;4;4;
73565;PMS5003;61846;52.970;-3.168;2022-09-09T13:23:38;4;3;
73565;PMS5003;61846;52.970;-3.168;2022-09-09T13:26:04;2;2;
73565;PMS5003;61846;52.970;-3.168;2022-09-09T13:28:29;3;3;
73565;PMS5003;61846;52.970;-3.168;2022-09-09T13:30:56;5;4;
73565;PMS5003;61846;52.970;-3.168;2022-09-09T13:33:21;3;3;
73565;PMS5003;61846;52.970;-3.168;2022-09-09T13:35:45;8;6;
73565;PMS5003;61846;52.970;-3.168;2022-09-09T13:38:12;4;4;
73565;PMS5003;61846;52.970;-3.168;2022-09-09T13:40:35;1;1;
73565;PMS5003;61846;52.970;-3.168;2022-09-09T13:43:01;5;2;
73565;PMS5003;61846;52.970;-3.168;2022-09-09T13:45:26;2;2;
73565;PMS5003;61846;52.970;-3.168;2022-09-09T13:47:51;4;4;
73565;PMS5003;61846;52.970;-3.168;2022-09-09T13:50:18;3;2;
73565;PMS5003;61846;52.970;-3.168;2022-09-09T13:52:42;2;2;
73565;PMS5003;61846;52.970;-3.168;2022-09-09T13:55:07;5;2;
73565;PMS5003;61846;52.970;-3.168;2022-09-09T13:57:32;4;2;
73565;PMS5003;61846;52.970;-3.168;2022-09-09T13:59:57;3;3;
73565;PMS5003;61846;52.970;-3.168;2022-09-09T14:02:23;3;3;
73565;PMS5003;61846;52.970;-3.168;2022-09-09T14:04:48;4;3;
73565;PMS5003;61846;52.970;-3.168;2022-09-09T14:07:14;2;2;
73565;PMS5003;61846;52.970;-3.168;2022-09-09T14:09:39;2;2;
73565;PMS5003;61846;52.970;-3.168;2022-09-09T14:12:04;3;3;
73565;PMS5003;61846;52.970;-3.168;2022-09-09T14:14:29;2;2;
73565;PMS5003;61846;52.970;-3.168;2022-09-09T14:16:54;2;2;
73565;PMS5003;61846;52.970;-3.168;2022-09-09T14:19:20;4;2;
73565;PMS5003;61846;52.970;-3.168;2022-09-09T14:21:45;1;1;
73565;PMS5003;61846;52.970;-3.168;2022-09-09T14:24:10;3;3;
73565;PMS5003;61846;52.970;-3.168;2022-09-09T14:26:36;3;3;
73565;PMS5003;61846;52.970;-3.168;2022-09-09T14:29:01;3;3;
73565;PMS5003;61846;52.970;-3.168;2022-09-09T14:31:26;1;1;
73565;PMS5003;61846;52.970;-3.168;2022-09-09T14:33:51;3;3;
73565;PMS5003;61846;52.970;-3.168;2022-09-09T14:36:17;2;2;
73565;PMS5003;61846;52.970;-3.168;2022-09-09T14:38:42;4;3;
73565;PMS5003;61846;52.970;-3.168;2022-09-09T14:41:08;1;1;
73565;PMS5003;61846;52.970;-3.168;2022-09-09T14:43:33;3;3;
73565;PMS5003;61846;52.970;-3.168;2022-09-09T14:48:23;3;2;
73565;PMS5003;61846;52.970;-3.168;2022-09-09T14:50:48;2;2;
73565;PMS5003;61846;52.970;-3.168;2022-09-09T14:53:14;5;1;
73565;PMS5003;61846;52.970;-3.168;2022-09-09T14:55:39;3;1;
73565;PMS5003;61846;52.970;-3.168;2022-09-09T14:58:04;2;2;
73565;PMS5003;61846;52.970;-3.168;2022-09-09T15:00:30;1;1;
73565;PMS5003;61846;52.970;-3.168;2022-09-09T15:02:55;3;2;
73565;PMS5003;61846;52.970;-3.168;2022-09-09T15:05:20;3;3;
73565;PMS5003;61846;52.970;-3.168;2022-09-09T15:07:45;4;3;
73565;PMS5003;61846;52.970;-3.168;2022-09-09T15:10:11;2;2;
73565;PMS5003;61846;52.970;-3.168;2022-09-09T15:12:36;3;3;
73565;PMS5003;61846;52.970;-3.168;2022-09-09T15:15:02;4;4;
73565;PMS5003;61846;52.970;-3.168;2022-09-09T15:17:27;2;0;
73565;PMS5003;61846;52.970;-3.168;2022-09-09T15:19:52;4;2;
73565;PMS5003;61846;52.970;-3.168;2022-09-09T15:22:17;2;1;
73565;PMS5003;61846;52.970;-3.168;2022-09-09T15:24:43;2;2;
73565;PMS5003;61846;52.970;-3.168;2022-09-09T15:27:08;5;5;
73565;PMS5003;61846;52.970;-3.168;2022-09-09T15:29:33;4;2;
73565;PMS5003;61846;52.970;-3.168;2022-09-09T15:31:58;4;4;
73565;PMS5003;61846;52.970;-3.168;2022-09-09T15:34:24;3;3;
73565;PMS5003;61846;52.970;-3.168;2022-09-09T15:36:49;6;6;
73565;PMS5003;61846;52.970;-3.168;2022-09-09T15:39:16;3;2;
73565;PMS5003;61846;52.970;-3.168;2022-09-09T15:41:40;2;2;
73565;PMS5003;61846;52.970;-3.168;2022-09-09T15:44:05;6;4;
73565;PMS5003;61846;52.970;-3.168;2022-09-09T15:46:31;5;3;
73565;PMS5003;61846;52.970;-3.168;2022-09-09T15:48:56;2;2;
73565;PMS5003;61846;52.970;-3.168;2022-09-09T15:51:21;3;2;
73565;PMS5003;61846;52.970;-3.168;2022-09-09T15:53:46;4;4;
73565;PMS5003;61846;52.970;-3.168;2022-09-09T15:56:11;2;2;
73565;PMS5003;61846;52.970;-3.168;2022-09-09T15:58:37;3;3;
73565;PMS5003;61846;52.970;-3.168;2022-09-09T16:01:02;5;3;
73565;PMS5003;61846;52.970;-3.168;2022-09-09T16:03:28;5;2;
73565;PMS5003;61846;52.970;-3.168;2022-09-09T16:05:53;1;1;
73565;PMS5003;61846;52.970;-3.168;2022-09-09T16:08:18;5;4;
73565;PMS5003;61846;52.970;-3.168;2022-09-09T16:10:43;3;3;
73565;PMS5003;61846;52.970;-3.168;2022-09-09T16:13:08;7;5;
73565;PMS5003;61846;52.970;-3.168;2022-09-09T16:15:34;8;6;
73565;PMS5003;61846;52.970;-3.168;2022-09-09T16:18:00;6;6;
73565;PMS5003;61846;52.970;-3.168;2022-09-09T16:20:25;6;5;
73565;PMS5003;61846;52.970;-3.168;2022-09-09T16:22:50;2;2;
73565;PMS5003;61846;52.970;-3.168;2022-09-09T16:25:16;2;2;
73565;PMS5003;61846;52.970;-3.168;2022-09-09T16:27:41;1;1;
73565;PMS5003;61846;52.970;-3.168;2022-09-09T16:30:07;2;2;